Hayes, Louisiana
Current Conditions -  °F | °C
As of 12:15 AM on Monday 22 Dec 2014 (Local Time) from KCWF Reporting Station
Moderate Fog Moderate Fog  
Wind Chill: 51°   Ceiling: 200
Heat Index: 51°   Visibility: 0.5mi
Dew Point: 50°   Wind: 7mph
Humidity: 99%   Direction: 130°SE
Pressure: 29.92"   Gusts: NA
Location:  30.11°N, 92.92°W
Report Text: KCWF 220615Z AUTO 13006KT 1/2SM FG OVC002 10/10 A2992 RMK AO2 T01030102
Loading
Personal Weather Stations






























Interactive Weather Map New forecast layout! Learn more

10-Day Weather Forecast

Advertisements
Track Severe Weather on mobile